createdAt,value
2018-10-05T00:01:37.956Z,12.16
2018-10-05T00:04:07.441Z,12.14
2018-10-05T00:06:37.318Z,12.10
2018-10-05T00:09:10.460Z,12.09
2018-10-05T00:11:40.908Z,12.08
2018-10-05T00:14:10.405Z,12.12
2018-10-05T00:16:39.801Z,12.13
2018-10-05T00:19:09.205Z,12.08
2018-10-05T00:21:38.626Z,12.06
2018-10-05T00:24:08.373Z,12.09
2018-10-05T00:26:37.805Z,12.07
2018-10-05T00:29:07.390Z,12.02
2018-10-05T00:31:36.881Z,12.03
2018-10-05T00:34:06.267Z,11.97
2018-10-05T00:36:35.656Z,12.00
2018-10-05T00:39:06.240Z,11.96
2018-10-05T00:41:35.720Z,11.98
2018-10-05T00:44:05.174Z,12.01
2018-10-05T00:46:34.577Z,11.94
2018-10-05T00:49:04.091Z,11.97
2018-10-05T00:51:33.515Z,11.93
2018-10-05T00:54:03.072Z,11.91
2018-10-05T00:56:32.693Z,11.94
2018-10-05T00:59:02.217Z,11.90
2018-10-05T01:04:00.554Z,11.90
2018-10-05T01:06:30.016Z,11.94
2018-10-05T01:08:59.424Z,11.89
2018-10-05T01:11:28.918Z,11.89
2018-10-05T01:13:58.305Z,11.90
2018-10-05T01:16:27.695Z,11.84
2018-10-05T01:18:57.127Z,11.85
2018-10-05T01:21:26.522Z,11.80
2018-10-05T01:23:56.039Z,11.78
2018-10-05T01:26:25.586Z,11.73
2018-10-05T01:28:55.111Z,11.76
2018-10-05T01:31:24.778Z,11.79
2018-10-05T01:33:54.189Z,11.79
2018-10-05T01:36:23.825Z,11.74
2018-10-05T01:38:53.279Z,11.73
2018-10-05T01:41:22.715Z,11.74
2018-10-05T01:43:53.176Z,11.75
2018-10-05T01:46:22.562Z,11.67
2018-10-05T01:48:51.992Z,11.67
2018-10-05T01:51:33.722Z,11.63
2018-10-05T01:54:04.593Z,11.65
2018-10-05T01:56:34.599Z,11.57
2018-10-05T01:59:04.377Z,11.57
2018-10-05T02:01:34.028Z,11.55
2018-10-05T02:04:04.000Z,11.46
2018-10-05T02:06:33.411Z,11.41
2018-10-05T02:09:02.833Z,11.44
2018-10-05T02:11:32.239Z,11.38
2018-10-05T02:14:01.688Z,11.39
2018-10-05T02:16:31.046Z,11.36
2018-10-05T02:19:00.472Z,11.33
2018-10-05T02:21:30.108Z,11.29
2018-10-05T02:23:59.579Z,11.31
2018-10-05T02:26:29.135Z,11.24
2018-10-05T02:28:58.754Z,11.23
2018-10-05T02:31:28.116Z,11.21
2018-10-05T02:33:57.623Z,11.23
2018-10-05T02:36:27.088Z,11.16
2018-10-05T02:38:56.585Z,11.13
2018-10-05T02:41:26.045Z,11.19
2018-10-05T02:43:55.529Z,11.12
2018-10-05T02:46:24.923Z,11.13
2018-10-05T02:48:54.420Z,11.15
2018-10-05T02:51:24.044Z,11.13
2018-10-05T02:53:53.516Z,11.10
2018-10-05T02:56:22.922Z,11.19
2018-10-05T02:58:52.325Z,11.15
2018-10-05T03:01:38.933Z,11.17
2018-10-05T03:04:09.019Z,11.14
2018-10-05T03:06:38.541Z,11.16
2018-10-05T03:09:08.082Z,11.17
2018-10-05T03:11:37.477Z,11.13
2018-10-05T03:14:06.885Z,11.16
2018-10-05T03:16:36.269Z,11.23
2018-10-05T03:19:06.419Z,11.17
2018-10-05T03:21:35.900Z,11.13
2018-10-05T03:24:06.060Z,11.18
2018-10-05T03:26:35.451Z,11.19
2018-10-05T03:29:04.932Z,11.15
2018-10-05T03:31:34.438Z,11.14
2018-10-05T03:34:03.843Z,11.14
2018-10-05T03:36:33.267Z,11.11
2018-10-05T03:39:02.748Z,11.05
2018-10-05T03:41:32.134Z,11.07
2018-10-05T03:44:01.574Z,11.09
2018-10-05T03:46:31.616Z,11.06
2018-10-05T03:49:01.136Z,11.04
2018-10-05T03:51:30.561Z,11.04
2018-10-05T03:53:59.988Z,11.04
2018-10-05T03:56:29.591Z,11.06
2018-10-05T03:58:59.006Z,11.03
2018-10-05T04:01:28.367Z,10.97
2018-10-05T04:03:58.124Z,11.00
2018-10-05T04:06:27.507Z,11.00
2018-10-05T04:08:56.907Z,11.01
2018-10-05T04:11:26.389Z,11.06
2018-10-05T04:13:55.808Z,11.06
2018-10-05T04:16:25.252Z,11.03
2018-10-05T04:18:54.623Z,11.01
2018-10-05T04:21:24.053Z,11.00
2018-10-05T04:23:53.449Z,10.97
2018-10-05T04:26:22.848Z,10.94
2018-10-05T04:28:52.279Z,10.91
2018-10-05T04:31:21.655Z,10.87
2018-10-05T04:33:51.072Z,10.87
2018-10-05T04:36:20.577Z,10.85
2018-10-05T04:38:50.262Z,10.87
2018-10-05T04:41:19.719Z,10.82
2018-10-05T04:43:49.134Z,10.81
2018-10-05T04:46:18.749Z,10.82
2018-10-05T04:48:48.662Z,10.86
2018-10-05T04:51:18.075Z,10.95
2018-10-05T04:53:47.459Z,10.91
2018-10-05T04:56:16.872Z,10.93
2018-10-05T04:58:46.295Z,10.87
2018-10-05T05:01:15.756Z,10.90
2018-10-05T05:03:45.148Z,10.88
2018-10-05T05:06:14.520Z,10.84
2018-10-05T05:08:43.979Z,10.84
2018-10-05T05:11:13.387Z,10.89
2018-10-05T05:13:42.747Z,10.82
2018-10-05T05:16:12.268Z,10.80
2018-10-05T05:18:41.671Z,10.86
2018-10-05T05:21:11.121Z,10.86
2018-10-05T05:23:40.480Z,10.83
2018-10-05T05:26:09.893Z,10.80
2018-10-05T05:28:39.286Z,10.82
2018-10-05T05:31:08.687Z,10.83
2018-10-05T05:33:38.213Z,10.75
2018-10-05T05:36:09.119Z,10.76
2018-10-05T05:38:38.691Z,10.77
2018-10-05T05:41:08.161Z,10.78
2018-10-05T05:43:37.632Z,10.73
2018-10-05T05:46:07.083Z,10.68
2018-10-05T05:48:36.541Z,10.67
2018-10-05T05:51:05.975Z,10.73
2018-10-05T05:53:35.903Z,10.72
2018-10-05T05:56:05.367Z,10.78
2018-10-05T05:58:34.893Z,10.76
2018-10-05T06:01:08.444Z,10.76
2018-10-05T06:03:39.019Z,10.79
2018-10-05T06:06:08.644Z,10.82
2018-10-05T06:08:38.047Z,10.79
2018-10-05T06:11:08.360Z,10.81
2018-10-05T06:13:37.774Z,10.92
2018-10-05T06:16:07.532Z,11.08
2018-10-05T06:18:37.095Z,11.18
2018-10-05T06:21:06.720Z,11.41
2018-10-05T06:23:36.210Z,11.56
2018-10-05T06:26:05.763Z,11.75
2018-10-05T06:28:35.151Z,11.98
2018-10-05T06:31:04.790Z,12.26
2018-10-05T06:33:34.181Z,12.41
2018-10-05T06:36:03.637Z,12.72
2018-10-05T06:38:33.349Z,12.95
2018-10-05T06:41:02.912Z,13.18
2018-10-05T06:43:32.305Z,13.53
2018-10-05T06:46:01.741Z,13.55
2018-10-05T06:48:31.159Z,13.53
2018-10-05T06:51:00.647Z,14.04
2018-10-05T06:53:30.246Z,14.33
2018-10-05T06:55:59.793Z,13.65
2018-10-05T06:58:29.156Z,14.28
2018-10-05T07:00:58.596Z,14.22
2018-10-05T07:03:27.972Z,14.27
2018-10-05T07:05:57.464Z,14.57
2018-10-05T07:08:26.911Z,14.50
2018-10-05T07:10:56.417Z,14.87
2018-10-05T07:13:25.829Z,15.25
2018-10-05T07:15:55.403Z,15.34
2018-10-05T07:18:24.737Z,15.90
2018-10-05T07:20:54.274Z,15.72
2018-10-05T07:23:23.676Z,15.51
2018-10-05T07:25:53.092Z,15.10
2018-10-05T07:28:22.594Z,15.31
2018-10-05T07:30:51.985Z,15.38
2018-10-05T07:33:21.461Z,15.67
2018-10-05T07:35:50.908Z,15.62
2018-10-05T07:38:20.325Z,15.56
2018-10-05T07:40:49.917Z,15.93
2018-10-05T07:43:19.482Z,15.92
2018-10-05T07:45:48.924Z,15.82
2018-10-05T07:48:18.480Z,16.39
2018-10-05T07:50:48.511Z,16.61
2018-10-05T07:53:18.574Z,16.24
2018-10-05T07:55:48.143Z,16.60
2018-10-05T07:58:17.651Z,16.98
2018-10-05T08:00:47.674Z,16.89
2018-10-05T08:03:17.345Z,16.87
2018-10-05T08:05:46.877Z,16.95
2018-10-05T08:08:16.305Z,17.07
2018-10-05T08:10:45.803Z,17.36
2018-10-05T08:13:15.308Z,17.04
2018-10-05T08:15:44.707Z,16.64
2018-10-05T08:18:14.152Z,17.48
2018-10-05T08:20:43.615Z,17.43
2018-10-05T08:23:13.033Z,18.39
2018-10-05T08:25:42.695Z,18.44
2018-10-05T08:28:12.238Z,18.49
2018-10-05T08:30:42.123Z,18.50
2018-10-05T08:33:11.556Z,18.70
2018-10-05T08:35:40.966Z,19.04
2018-10-05T08:38:10.872Z,19.56
2018-10-05T08:40:40.265Z,19.76
2018-10-05T08:43:10.811Z,20.53
2018-10-05T08:45:40.914Z,20.20
2018-10-05T08:48:10.337Z,20.09
2018-10-05T08:50:39.791Z,19.19
2018-10-05T08:53:09.245Z,19.74
2018-10-05T08:55:38.783Z,20.50
2018-10-05T08:58:08.257Z,20.66
2018-10-05T09:00:37.851Z,19.12
2018-10-05T09:03:07.246Z,19.62
2018-10-05T09:05:36.700Z,20.19
2018-10-05T09:08:06.930Z,20.22
2018-10-05T09:10:36.407Z,20.22
2018-10-05T09:13:06.046Z,20.37
2018-10-05T09:15:36.212Z,20.77
2018-10-05T09:18:05.871Z,21.02
2018-10-05T09:20:35.352Z,20.65
2018-10-05T09:23:05.041Z,21.06
2018-10-05T09:25:35.516Z,21.19
2018-10-05T09:28:04.951Z,21.46
2018-10-05T09:30:34.504Z,21.37
2018-10-05T09:33:03.906Z,21.74
2018-10-05T09:35:33.412Z,22.32
2018-10-05T09:38:03.132Z,21.87
2018-10-05T09:40:32.630Z,21.57
2018-10-05T09:43:02.585Z,21.70
2018-10-05T09:45:32.030Z,21.23
2018-10-05T09:48:01.565Z,21.68
2018-10-05T09:50:31.621Z,22.24
2018-10-05T09:53:01.079Z,21.91
2018-10-05T09:55:30.626Z,22.09
2018-10-05T09:58:00.393Z,22.56
2018-10-05T10:00:35.508Z,22.00
2018-10-05T10:03:10.274Z,22.52
2018-10-05T10:05:39.740Z,23.15
2018-10-05T10:08:10.308Z,23.48
2018-10-05T10:10:39.711Z,22.81
2018-10-05T10:13:09.195Z,23.35
2018-10-05T10:15:38.627Z,23.42
2018-10-05T10:18:08.604Z,23.55
2018-10-05T10:20:38.146Z,23.33
2018-10-05T10:23:07.613Z,24.26
2018-10-05T10:25:37.074Z,23.99
2018-10-05T10:28:06.882Z,23.92
2018-10-05T10:30:36.453Z,22.74
2018-10-05T10:33:06.034Z,22.79
2018-10-05T10:35:36.085Z,21.95
2018-10-05T10:38:05.699Z,23.52
2018-10-05T10:40:35.138Z,24.11
2018-10-05T10:43:04.568Z,23.78
2018-10-05T10:45:34.022Z,24.21
2018-10-05T10:48:03.632Z,23.96
2018-10-05T10:50:33.140Z,23.70
2018-10-05T10:53:02.719Z,24.37
2018-10-05T10:55:32.636Z,24.75
2018-10-05T10:58:02.123Z,25.13
2018-10-05T11:00:31.605Z,25.04
2018-10-05T11:03:01.073Z,24.66
2018-10-05T11:05:30.561Z,24.65
2018-10-05T11:08:00.018Z,24.84
2018-10-05T11:10:30.113Z,23.73
2018-10-05T11:12:59.572Z,24.34
2018-10-05T11:15:29.024Z,24.78
2018-10-05T11:17:58.427Z,25.20
2018-10-05T11:20:27.865Z,25.68
2018-10-05T11:22:57.267Z,24.67
2018-10-05T11:25:26.951Z,25.49
2018-10-05T11:27:56.335Z,25.82
2018-10-05T11:30:25.782Z,25.06
2018-10-05T11:32:55.474Z,26.00
2018-10-05T11:35:24.907Z,25.47
2018-10-05T11:37:54.448Z,25.16
2018-10-05T11:40:23.899Z,25.64
2018-10-05T11:42:53.354Z,24.78
2018-10-05T11:45:23.395Z,25.40
2018-10-05T11:47:52.864Z,25.86
2018-10-05T11:50:22.323Z,25.69
2018-10-05T11:52:51.807Z,26.17
2018-10-05T11:55:21.272Z,25.97
2018-10-05T11:57:50.771Z,26.27
2018-10-05T12:00:20.301Z,25.93
2018-10-05T12:02:49.722Z,25.50
2018-10-05T12:05:19.265Z,25.34
2018-10-05T12:07:49.611Z,24.83
2018-10-05T12:10:19.039Z,24.64
2018-10-05T12:12:48.516Z,25.47
2018-10-05T12:15:17.920Z,25.56
2018-10-05T12:17:47.308Z,25.60
2018-10-05T12:20:16.817Z,25.80
2018-10-05T12:22:46.309Z,25.46
2018-10-05T12:25:15.811Z,26.10
2018-10-05T12:27:45.215Z,26.45
2018-10-05T12:30:14.732Z,26.23
2018-10-05T12:32:44.099Z,26.16
2018-10-05T12:35:14.017Z,25.55
2018-10-05T12:37:43.468Z,25.95
2018-10-05T12:40:13.067Z,26.37
2018-10-05T12:42:42.492Z,26.65
2018-10-05T12:45:11.939Z,26.33
2018-10-05T12:47:41.340Z,26.53
2018-10-05T12:50:10.840Z,25.89
2018-10-05T12:52:40.642Z,25.16
2018-10-05T12:55:10.619Z,26.10
2018-10-05T12:57:40.565Z,25.22
2018-10-05T13:00:10.017Z,25.06
2018-10-05T13:02:39.434Z,25.09
2018-10-05T13:05:09.272Z,25.61
2018-10-05T13:07:38.959Z,25.33
2018-10-05T13:10:08.430Z,25.12
2018-10-05T13:12:37.927Z,24.88
2018-10-05T13:15:07.576Z,25.19
2018-10-05T13:17:37.047Z,24.81
2018-10-05T13:20:06.503Z,25.33
2018-10-05T13:22:37.252Z,24.83
2018-10-05T13:25:06.738Z,25.22
2018-10-05T13:27:36.161Z,25.40
2018-10-05T13:30:06.715Z,25.71
2018-10-05T13:32:36.297Z,25.38
2018-10-05T13:35:05.918Z,24.32
2018-10-05T13:37:35.362Z,25.10
2018-10-05T13:40:05.002Z,25.34
2018-10-05T13:42:34.520Z,25.95
2018-10-05T13:45:03.957Z,25.47
2018-10-05T13:47:33.460Z,24.81
2018-10-05T13:50:02.973Z,25.51
2018-10-05T13:52:32.385Z,25.08
2018-10-05T13:55:01.833Z,25.42
2018-10-05T13:57:31.339Z,25.49
2018-10-05T14:00:00.738Z,25.58
2018-10-05T14:02:30.462Z,25.06
2018-10-05T14:04:59.988Z,25.56
2018-10-05T14:07:29.471Z,24.95
2018-10-05T14:09:59.023Z,25.02
2018-10-05T14:12:28.429Z,25.31
2018-10-05T14:14:57.906Z,25.25
2018-10-05T14:17:27.562Z,25.61
2018-10-05T14:19:57.203Z,25.22
2018-10-05T14:22:26.712Z,25.08
2018-10-05T14:24:56.253Z,24.36
2018-10-05T14:27:25.671Z,24.76
2018-10-05T14:29:55.179Z,24.41
2018-10-05T14:32:24.838Z,24.28
2018-10-05T14:34:54.333Z,24.36
2018-10-05T14:37:23.783Z,24.07
2018-10-05T14:39:53.870Z,24.17
2018-10-05T14:42:23.373Z,23.82
2018-10-05T14:44:52.895Z,23.95
2018-10-05T14:47:22.386Z,24.14
2018-10-05T14:49:51.994Z,23.87
2018-10-05T14:52:25.552Z,23.79
2018-10-05T14:54:56.585Z,24.03
2018-10-05T14:57:25.990Z,23.70
2018-10-05T14:59:55.433Z,23.65
2018-10-05T15:02:24.870Z,23.54
2018-10-05T15:04:54.769Z,23.55
2018-10-05T15:07:24.495Z,23.38
2018-10-05T15:09:54.181Z,23.14
2018-10-05T15:12:23.568Z,23.21
2018-10-05T15:14:53.024Z,23.08
2018-10-05T15:17:22.728Z,22.99
2018-10-05T15:19:52.225Z,23.14
2018-10-05T15:22:21.785Z,22.95
2018-10-05T15:24:52.080Z,22.80
2018-10-05T15:27:22.150Z,22.87
2018-10-05T15:29:54.543Z,22.86
2018-10-05T15:32:24.046Z,22.48
2018-10-05T15:34:53.667Z,22.68
2018-10-05T15:37:23.060Z,22.56
2018-10-05T15:39:52.483Z,22.63
2018-10-05T15:42:21.980Z,22.45
2018-10-05T15:44:51.997Z,22.46
2018-10-05T15:47:21.495Z,22.38
2018-10-05T15:49:51.282Z,22.28
2018-10-05T15:52:20.753Z,22.31
2018-10-05T15:54:50.218Z,22.38
2018-10-05T15:57:19.686Z,22.31
2018-10-05T15:59:49.145Z,22.20
2018-10-05T16:02:18.555Z,22.19
2018-10-05T16:04:48.022Z,22.08
2018-10-05T16:07:17.560Z,22.01
2018-10-05T16:09:46.972Z,22.09
2018-10-05T16:12:16.504Z,22.05
2018-10-05T16:14:45.869Z,21.94
2018-10-05T16:17:15.338Z,21.87
2018-10-05T16:19:44.797Z,21.82
2018-10-05T16:22:14.246Z,21.80
2018-10-05T16:24:45.039Z,21.79
2018-10-05T16:27:14.763Z,21.75
2018-10-05T16:29:44.154Z,21.75
2018-10-05T16:32:13.733Z,21.67
2018-10-05T16:34:43.425Z,21.65
2018-10-05T16:37:13.258Z,21.55
2018-10-05T16:39:43.419Z,21.46
2018-10-05T16:42:13.249Z,21.47
2018-10-05T16:44:43.108Z,21.40
2018-10-05T16:47:12.725Z,21.35
2018-10-05T16:49:42.354Z,21.34
2018-10-05T16:52:12.876Z,21.30
2018-10-05T16:54:43.033Z,21.15
2018-10-05T16:57:13.204Z,21.20
2018-10-05T16:59:44.083Z,21.12
